createdAt,value
2019-03-30T00:00:00.968Z,5.42
2019-03-30T00:00:05.314Z,5.42
2019-03-30T00:00:09.611Z,5.41
2019-03-30T00:00:13.917Z,5.41
2019-03-30T00:00:18.225Z,5.41
2019-03-30T00:00:22.425Z,5.41
2019-03-30T00:00:26.727Z,5.4
2019-03-30T00:00:31.020Z,5.4
2019-03-30T00:00:35.212Z,5.39
2019-03-30T00:00:39.509Z,5.4
2019-03-30T00:00:43.889Z,5.39
2019-03-30T00:00:48.191Z,5.39
2019-03-30T00:00:52.396Z,5.38
2019-03-30T00:00:56.684Z,5.37
2019-03-30T00:01:01.530Z,5.38
2019-03-30T00:01:05.826Z,5.37
2019-03-30T00:01:10.125Z,5.38
2019-03-30T00:01:14.320Z,5.37
2019-03-30T00:01:18.544Z,5.37
2019-03-30T00:01:22.865Z,5.37
2019-03-30T00:01:27.161Z,5.36
2019-03-30T00:01:31.462Z,5.36
2019-03-30T00:01:35.829Z,5.35
2019-03-30T00:01:40.124Z,5.36
2019-03-30T00:01:44.425Z,5.36
2019-03-30T00:01:48.728Z,5.35
2019-03-30T00:01:53.034Z,5.35
2019-03-30T00:01:57.328Z,5.34
2019-03-30T00:02:01.622Z,5.34
2019-03-30T00:02:05.919Z,5.34
2019-03-30T00:02:10.212Z,5.35
2019-03-30T00:02:14.499Z,5.34
2019-03-30T00:02:18.696Z,5.34
2019-03-30T00:02:23.010Z,5.34
2019-03-30T00:02:27.310Z,5.34
2019-03-30T00:02:31.604Z,5.34
2019-03-30T00:02:39.259Z,5.34
2019-03-30T00:02:43.561Z,5.34
2019-03-30T00:02:47.985Z,5.34
2019-03-30T00:02:52.280Z,5.33
2019-03-30T00:02:56.588Z,5.34
2019-03-30T00:03:00.882Z,5.32
2019-03-30T00:03:05.179Z,5.33
2019-03-30T00:03:09.479Z,5.33
2019-03-30T00:03:13.776Z,5.32
2019-03-30T00:03:17.974Z,5.31
2019-03-30T00:03:22.329Z,5.31
2019-03-30T00:03:26.652Z,5.31
2019-03-30T00:03:30.948Z,5.3
2019-03-30T00:03:35.242Z,5.31
2019-03-30T00:03:39.531Z,5.31
2019-03-30T00:03:43.748Z,5.3
2019-03-30T00:03:47.938Z,5.3
2019-03-30T00:03:52.137Z,5.31
2019-03-30T00:03:56.420Z,5.3
2019-03-30T00:04:00.711Z,5.29
2019-03-30T00:04:05.002Z,5.3
2019-03-30T00:04:09.298Z,5.3
2019-03-30T00:04:13.594Z,5.3
2019-03-30T00:04:17.790Z,5.3
2019-03-30T00:04:22.091Z,5.3
2019-03-30T00:04:26.386Z,5.29
2019-03-30T00:04:30.681Z,5.3
2019-03-30T00:04:34.970Z,5.29
2019-03-30T00:04:39.256Z,5.29
2019-03-30T00:04:43.585Z,5.29
2019-03-30T00:04:47.892Z,5.29
2019-03-30T00:04:52.193Z,5.29
2019-03-30T00:04:56.483Z,5.28
2019-03-30T00:05:00.956Z,5.29
2019-03-30T00:05:05.272Z,5.29
2019-03-30T00:05:09.566Z,5.28
2019-03-30T00:05:13.897Z,5.28
2019-03-30T00:05:18.192Z,5.28
2019-03-30T00:05:22.479Z,5.28
2019-03-30T00:05:26.774Z,5.29
2019-03-30T00:05:31.108Z,5.28
2019-03-30T00:05:35.436Z,5.28
2019-03-30T00:05:39.637Z,5.28
2019-03-30T00:05:43.926Z,5.28
2019-03-30T00:05:48.561Z,5.29
2019-03-30T00:05:52.844Z,5.28
2019-03-30T00:05:57.140Z,5.28
2019-03-30T00:06:01.441Z,5.27
2019-03-30T00:06:05.737Z,5.28
2019-03-30T00:06:10.033Z,5.27
2019-03-30T00:06:14.322Z,5.28
2019-03-30T00:06:18.610Z,5.27
2019-03-30T00:06:23.002Z,5.27
2019-03-30T00:06:27.302Z,5.28
2019-03-30T00:06:31.593Z,5.28
2019-03-30T00:06:35.909Z,5.27
2019-03-30T00:06:40.198Z,5.27
2019-03-30T00:06:44.402Z,5.27
2019-03-30T00:06:48.695Z,5.27
2019-03-30T00:06:52.990Z,5.27
2019-03-30T00:06:57.278Z,5.26
2019-03-30T00:07:01.566Z,5.27
2019-03-30T00:07:05.856Z,5.27
2019-03-30T00:07:10.149Z,5.27
2019-03-30T00:07:14.442Z,5.26
2019-03-30T00:07:18.821Z,5.26
2019-03-30T00:07:23.112Z,5.26
2019-03-30T00:07:27.404Z,5.25
2019-03-30T00:07:31.696Z,5.25
2019-03-30T00:07:35.936Z,5.26
2019-03-30T00:07:40.284Z,5.25
2019-03-30T00:07:44.580Z,5.26
2019-03-30T00:07:48.874Z,5.25
2019-03-30T00:07:53.161Z,5.25
2019-03-30T00:07:57.460Z,5.25
2019-03-30T00:08:01.754Z,5.25
2019-03-30T00:08:06.050Z,5.24
2019-03-30T00:08:10.338Z,5.24
2019-03-30T00:08:14.655Z,5.25
2019-03-30T00:08:18.855Z,5.25
2019-03-30T00:08:23.048Z,5.24
2019-03-30T00:08:27.430Z,5.24
2019-03-30T00:08:31.732Z,5.24
2019-03-30T00:08:36.029Z,5.24
2019-03-30T00:08:40.425Z,5.24
2019-03-30T00:08:44.752Z,5.24
2019-03-30T00:08:49.373Z,5.24
2019-03-30T00:08:53.585Z,5.24
2019-03-30T00:08:57.879Z,5.24
2019-03-30T00:09:02.171Z,5.23
2019-03-30T00:09:06.457Z,5.23
2019-03-30T00:09:10.748Z,5.24
2019-03-30T00:09:15.042Z,5.23
2019-03-30T00:09:19.394Z,5.23
2019-03-30T00:09:23.692Z,5.23
2019-03-30T00:09:27.984Z,5.23
2019-03-30T00:09:32.340Z,5.22
2019-03-30T00:09:36.535Z,5.22
2019-03-30T00:09:40.830Z,5.22
2019-03-30T00:09:45.131Z,5.22
2019-03-30T00:09:49.433Z,5.22
2019-03-30T00:09:53.626Z,5.22
2019-03-30T00:09:57.720Z,5.22
2019-03-30T00:10:02.217Z,5.22
2019-03-30T00:10:06.540Z,5.21
2019-03-30T00:10:10.844Z,5.21
2019-03-30T00:10:15.140Z,5.21
2019-03-30T00:10:19.433Z,5.21
2019-03-30T00:10:23.723Z,5.2
2019-03-30T00:10:27.824Z,5.2
2019-03-30T00:10:32.114Z,5.2
2019-03-30T00:10:36.419Z,5.2
2019-03-30T00:10:40.789Z,5.2
2019-03-30T00:10:45.085Z,5.2
2019-03-30T00:10:49.444Z,5.2
2019-03-30T00:10:53.772Z,5.19
2019-03-30T00:10:58.064Z,5.19
2019-03-30T00:11:02.357Z,5.19
2019-03-30T00:11:06.661Z,5.19
2019-03-30T00:11:10.864Z,5.19
2019-03-30T00:11:15.149Z,5.19
2019-03-30T00:11:19.445Z,5.19
2019-03-30T00:11:23.735Z,5.19
2019-03-30T00:11:28.118Z,5.19
2019-03-30T00:11:32.319Z,5.19
2019-03-30T00:11:36.512Z,5.18
2019-03-30T00:11:40.808Z,5.18
2019-03-30T00:11:45.097Z,5.18
2019-03-30T00:11:49.803Z,5.18
2019-03-30T00:11:57.624Z,5.18
2019-03-30T00:12:02.244Z,5.18
2019-03-30T00:12:06.558Z,5.17
2019-03-30T00:12:10.950Z,5.17
2019-03-30T00:12:15.158Z,5.18
2019-03-30T00:12:19.182Z,5.17
2019-03-30T00:12:26.709Z,5.16
2019-03-30T00:12:31.001Z,5.17
2019-03-30T00:12:35.096Z,5.17
2019-03-30T00:12:39.391Z,5.17
2019-03-30T00:12:43.697Z,5.17
2019-03-30T00:12:48.212Z,5.17
2019-03-30T00:12:52.563Z,5.16
2019-03-30T00:12:56.850Z,5.17
2019-03-30T00:13:01.177Z,5.17
2019-03-30T00:13:05.567Z,5.16
2019-03-30T00:13:09.874Z,5.16
2019-03-30T00:13:14.163Z,5.17
2019-03-30T00:13:18.453Z,5.16
2019-03-30T00:13:22.746Z,5.16
2019-03-30T00:13:26.940Z,5.16
2019-03-30T00:13:31.171Z,5.16
2019-03-30T00:13:35.272Z,5.16
2019-03-30T00:13:39.644Z,5.15
2019-03-30T00:13:43.932Z,5.16
2019-03-30T00:13:48.228Z,5.16
2019-03-30T00:13:52.526Z,5.16
2019-03-30T00:13:56.823Z,5.16
2019-03-30T00:14:01.128Z,5.15
2019-03-30T00:14:05.479Z,5.15
2019-03-30T00:14:09.774Z,5.15
2019-03-30T00:14:14.118Z,5.14
2019-03-30T00:14:18.404Z,5.15
2019-03-30T00:14:22.638Z,5.14
2019-03-30T00:14:26.937Z,5.14
2019-03-30T00:14:31.232Z,5.14
2019-03-30T00:14:35.526Z,5.14
2019-03-30T00:14:39.818Z,5.15
2019-03-30T00:14:44.015Z,5.14
2019-03-30T00:14:48.304Z,5.14
2019-03-30T00:14:52.599Z,5.13
2019-03-30T00:14:56.893Z,5.13
2019-03-30T00:15:01.194Z,5.14
2019-03-30T00:15:05.732Z,5.13
2019-03-30T00:15:09.963Z,5.13
2019-03-30T00:15:14.303Z,5.13
2019-03-30T00:15:18.609Z,5.12
2019-03-30T00:15:22.892Z,5.13
2019-03-30T00:15:27.180Z,5.12
2019-03-30T00:15:31.473Z,5.12
2019-03-30T00:15:35.773Z,5.12
2019-03-30T00:15:40.065Z,5.12
2019-03-30T00:15:44.378Z,5.12
2019-03-30T00:15:48.690Z,5.12
2019-03-30T00:15:52.978Z,5.11
2019-03-30T00:15:57.272Z,5.11
2019-03-30T00:16:01.566Z,5.12
2019-03-30T00:16:05.773Z,5.12
2019-03-30T00:16:09.981Z,5.13
2019-03-30T00:16:14.193Z,5.12
2019-03-30T00:16:18.384Z,5.11
2019-03-30T00:16:22.674Z,5.11
2019-03-30T00:16:26.969Z,5.11
2019-03-30T00:16:31.264Z,5.11
2019-03-30T00:16:35.552Z,5.11
2019-03-30T00:16:39.862Z,5.11
2019-03-30T00:16:44.152Z,5.12
2019-03-30T00:16:48.694Z,5.12
2019-03-30T00:16:52.987Z,5.11
2019-03-30T00:16:57.281Z,5.11
2019-03-30T00:17:01.569Z,5.11
2019-03-30T00:17:05.858Z,5.12
2019-03-30T00:17:10.144Z,5.11
2019-03-30T00:17:14.463Z,5.11
2019-03-30T00:17:18.559Z,5.1
2019-03-30T00:17:22.844Z,5.11
2019-03-30T00:17:27.037Z,5.1
2019-03-30T00:17:31.330Z,5.1
2019-03-30T00:17:35.623Z,5.09
2019-03-30T00:17:39.915Z,5.1
2019-03-30T00:17:44.206Z,5.1
2019-03-30T00:17:48.685Z,5.09
2019-03-30T00:17:52.980Z,5.09
2019-03-30T00:17:57.270Z,5.1
2019-03-30T00:18:01.572Z,5.09
2019-03-30T00:18:06.011Z,5.07
2019-03-30T00:18:10.207Z,5.08
2019-03-30T00:18:14.523Z,5.08
2019-03-30T00:18:18.738Z,5.07
2019-03-30T00:18:23.029Z,5.08
2019-03-30T00:18:27.330Z,5.07
2019-03-30T00:18:31.616Z,5.07
2019-03-30T00:18:35.908Z,5.07
2019-03-30T00:18:43.658Z,5.06
2019-03-30T00:18:48.105Z,5.06
2019-03-30T00:18:52.402Z,5.06
2019-03-30T00:18:56.611Z,5.06
2019-03-30T00:19:00.902Z,5.06
2019-03-30T00:19:05.301Z,5.06
2019-03-30T00:19:09.503Z,5.06
2019-03-30T00:19:13.694Z,5.05
2019-03-30T00:19:17.985Z,5.05
2019-03-30T00:19:36.841Z,5.04
2019-03-30T00:19:41.134Z,5.04
2019-03-30T00:19:45.420Z,5.04
2019-03-30T00:19:50.061Z,5.04
2019-03-30T00:19:54.359Z,5.03
2019-03-30T00:19:58.648Z,5.03
2019-03-30T00:20:03.136Z,5.03
2019-03-30T00:20:07.345Z,5.03
2019-03-30T00:20:11.645Z,5.02
2019-03-30T00:20:15.939Z,5.02
2019-03-30T00:20:20.223Z,5.02
2019-03-30T00:20:24.512Z,5.01
2019-03-30T00:20:28.840Z,5.02
2019-03-30T00:20:33.131Z,5.03
2019-03-30T00:20:37.419Z,5.02
2019-03-30T00:20:41.717Z,5.02
2019-03-30T00:20:46.015Z,5.01
2019-03-30T00:20:50.482Z,5.01
2019-03-30T00:20:54.774Z,5.01
2019-03-30T00:20:58.910Z,5
2019-03-30T00:21:03.214Z,5.01
2019-03-30T00:21:07.513Z,5
2019-03-30T00:21:11.702Z,5.01
2019-03-30T00:21:16.003Z,5
2019-03-30T00:21:20.286Z,5
2019-03-30T00:21:24.572Z,5
2019-03-30T00:21:28.768Z,5.01
2019-03-30T00:21:33.078Z,5
2019-03-30T00:21:37.368Z,5
2019-03-30T00:21:41.672Z,4.99
2019-03-30T00:21:45.957Z,5.01
2019-03-30T00:21:50.256Z,5
2019-03-30T00:21:54.546Z,5
2019-03-30T00:21:58.838Z,4.99
2019-03-30T00:22:03.274Z,4.99
2019-03-30T00:22:07.475Z,5
2019-03-30T00:22:11.687Z,5
2019-03-30T00:22:15.975Z,5.01
2019-03-30T00:22:20.163Z,4.99
2019-03-30T00:22:24.360Z,4.99
2019-03-30T00:22:28.710Z,5
2019-03-30T00:22:33.002Z,4.99
2019-03-30T00:22:37.314Z,4.99
2019-03-30T00:22:41.601Z,4.99
2019-03-30T00:22:45.893Z,5
2019-03-30T00:22:50.181Z,4.99
2019-03-30T00:22:54.476Z,4.99
2019-03-30T00:22:58.669Z,5
2019-03-30T00:23:02.880Z,4.99
2019-03-30T00:23:07.173Z,4.99
2019-03-30T00:23:11.464Z,5
2019-03-30T00:23:15.755Z,5
2019-03-30T00:23:20.044Z,5
2019-03-30T00:23:24.348Z,5
2019-03-30T00:23:28.657Z,5
2019-03-30T00:23:32.954Z,5
2019-03-30T00:23:37.350Z,4.99
2019-03-30T00:23:41.650Z,5
2019-03-30T00:23:45.839Z,5
2019-03-30T00:23:50.132Z,5
2019-03-30T00:23:54.326Z,4.99
2019-03-30T00:23:58.615Z,5
2019-03-30T00:24:02.969Z,5
2019-03-30T00:24:07.269Z,4.99
2019-03-30T00:24:11.566Z,4.99
2019-03-30T00:24:15.852Z,4.99
2019-03-30T00:24:20.147Z,4.99
2019-03-30T00:24:24.445Z,4.99
2019-03-30T00:24:28.550Z,5.01
2019-03-30T00:24:32.841Z,5
2019-03-30T00:24:37.132Z,4.99
2019-03-30T00:24:41.507Z,5
2019-03-30T00:24:45.732Z,4.99
2019-03-30T00:24:50.001Z,4.99
2019-03-30T00:24:54.308Z,5
2019-03-30T00:24:58.590Z,5
2019-03-30T00:25:02.943Z,4.99
2019-03-30T00:25:07.230Z,4.99
2019-03-30T00:25:11.523Z,4.99
2019-03-30T00:25:15.813Z,5
2019-03-30T00:25:20.107Z,4.99
2019-03-30T00:25:24.430Z,4.99
2019-03-30T00:25:28.722Z,5
2019-03-30T00:25:33.029Z,4.99
2019-03-30T00:25:37.320Z,5
2019-03-30T00:25:41.622Z,5
2019-03-30T00:25:45.936Z,5
2019-03-30T00:25:50.132Z,4.99
2019-03-30T00:25:54.421Z,5
2019-03-30T00:25:58.715Z,5
2019-03-30T00:26:03.112Z,5
2019-03-30T00:26:07.408Z,4.99
2019-03-30T00:26:11.601Z,5
2019-03-30T00:26:15.894Z,4.99
2019-03-30T00:26:20.098Z,5
2019-03-30T00:26:24.389Z,4.99
2019-03-30T00:26:28.683Z,5.01
2019-03-30T00:26:32.974Z,5
2019-03-30T00:26:37.255Z,5.01
2019-03-30T00:26:41.543Z,5.01
2019-03-30T00:26:45.833Z,5
2019-03-30T00:26:50.120Z,5.01
2019-03-30T00:26:54.215Z,5.01
2019-03-30T00:26:58.531Z,5.01
2019-03-30T00:27:02.819Z,5
2019-03-30T00:27:07.118Z,5
2019-03-30T00:27:11.419Z,5
2019-03-30T00:27:15.610Z,5
2019-03-30T00:27:19.916Z,5
2019-03-30T00:27:24.214Z,5
2019-03-30T00:27:28.509Z,5
2019-03-30T00:27:32.804Z,5
2019-03-30T00:27:37.093Z,5.01
2019-03-30T00:27:41.385Z,5.01
2019-03-30T00:27:45.681Z,5.01
2019-03-30T00:27:50.062Z,5.01
2019-03-30T00:27:54.372Z,5.01
2019-03-30T00:27:58.565Z,5.01
2019-03-30T00:28:02.905Z,5.02
2019-03-30T00:28:07.202Z,5.01
2019-03-30T00:28:11.485Z,5.01
2019-03-30T00:28:15.793Z,5.01
2019-03-30T00:28:19.985Z,5.01
2019-03-30T00:28:24.270Z,5.01
2019-03-30T00:28:28.618Z,5.01
2019-03-30T00:28:32.927Z,5.01
2019-03-30T00:28:37.033Z,5.01
2019-03-30T00:28:41.240Z,5.01
2019-03-30T00:28:45.527Z,5.01
2019-03-30T00:28:50.092Z,5.01
2019-03-30T00:28:54.381Z,5.01
2019-03-30T00:28:58.698Z,5.01
2019-03-30T00:29:02.990Z,5.02
2019-03-30T00:29:07.283Z,5.02
2019-03-30T00:29:11.667Z,5.02
2019-03-30T00:29:15.978Z,5.02
2019-03-30T00:29:20.295Z,5.01
2019-03-30T00:29:24.595Z,5.01
2019-03-30T00:29:28.788Z,5.02
2019-03-30T00:29:33.080Z,5.02
2019-03-30T00:29:37.380Z,5.02
2019-03-30T00:29:41.724Z,5.02
2019-03-30T00:29:46.016Z,5.02
2019-03-30T00:29:50.792Z,5.03
2019-03-30T00:29:55.079Z,5.02
2019-03-30T00:29:59.368Z,5.02
2019-03-30T00:30:03.660Z,5.03
2019-03-30T00:30:07.949Z,5.03
2019-03-30T00:30:12.246Z,5.03
2019-03-30T00:30:19.828Z,5.02
2019-03-30T00:30:24.124Z,5.02
2019-03-30T00:30:28.433Z,5.02
2019-03-30T00:30:32.737Z,5.02
2019-03-30T00:30:37.038Z,5.03
2019-03-30T00:30:41.230Z,5.03
2019-03-30T00:30:45.459Z,5.02
2019-03-30T00:30:49.813Z,5.02
2019-03-30T00:30:54.103Z,5.02
2019-03-30T00:30:58.395Z,5.02
2019-03-30T00:31:02.703Z,5.02
2019-03-30T00:31:07.043Z,5.02
2019-03-30T00:31:11.343Z,5.03
2019-03-30T00:31:15.563Z,5.02
2019-03-30T00:31:19.846Z,5.03
2019-03-30T00:31:23.945Z,5.02
2019-03-30T00:31:28.242Z,5.03
2019-03-30T00:31:32.342Z,5.02
2019-03-30T00:31:36.568Z,5.02
2019-03-30T00:31:40.860Z,5.02
2019-03-30T00:31:45.174Z,5.02
2019-03-30T00:31:49.383Z,5.02
2019-03-30T00:31:53.576Z,5.01
2019-03-30T00:31:57.868Z,5.03
2019-03-30T00:32:02.123Z,5.02
2019-03-30T00:32:06.433Z,5.02
2019-03-30T00:32:10.544Z,5.02
2019-03-30T00:32:14.763Z,5.01
2019-03-30T00:32:18.961Z,5.01
2019-03-30T00:32:23.260Z,5.02
2019-03-30T00:32:27.456Z,5.02
2019-03-30T00:32:31.752Z,5.02
2019-03-30T00:32:36.053Z,5.01
2019-03-30T00:32:40.341Z,5.02
2019-03-30T00:32:44.637Z,5.01
2019-03-30T00:32:49.362Z,5.02
2019-03-30T00:32:53.655Z,5.01
2019-03-30T00:32:57.860Z,5.01
2019-03-30T00:33:02.157Z,5.01
2019-03-30T00:33:06.451Z,5.01
2019-03-30T00:33:10.726Z,5.01
2019-03-30T00:33:14.943Z,5.01
2019-03-30T00:33:19.153Z,5.01
2019-03-30T00:33:23.410Z,5.01
2019-03-30T00:33:27.504Z,5
2019-03-30T00:33:31.793Z,5.01
2019-03-30T00:33:36.174Z,5.01
2019-03-30T00:33:40.491Z,5
2019-03-30T00:33:44.787Z,5.01
2019-03-30T00:33:49.369Z,5
2019-03-30T00:33:53.653Z,5
2019-03-30T00:33:57.939Z,5
2019-03-30T00:34:02.255Z,5.01
2019-03-30T00:34:06.543Z,5
2019-03-30T00:34:10.839Z,5
2019-03-30T00:34:15.056Z,5
2019-03-30T00:34:19.376Z,5
2019-03-30T00:34:23.578Z,5
2019-03-30T00:34:27.890Z,4.99
2019-03-30T00:34:32.172Z,5
2019-03-30T00:34:36.378Z,5
2019-03-30T00:34:40.568Z,4.99
2019-03-30T00:34:44.855Z,4.99
2019-03-30T00:34:49.257Z,4.99
2019-03-30T00:34:53.451Z,4.99
2019-03-30T00:34:57.742Z,4.99
2019-03-30T00:35:02.093Z,4.98
2019-03-30T00:35:06.406Z,4.98
2019-03-30T00:35:10.707Z,4.97
2019-03-30T00:35:15.011Z,4.97
2019-03-30T00:35:19.307Z,4.97
2019-03-30T00:35:23.614Z,4.98
2019-03-30T00:35:27.912Z,4.98
2019-03-30T00:35:32.214Z,4.97
2019-03-30T00:35:36.510Z,4.97
2019-03-30T00:35:40.814Z,4.97
2019-03-30T00:35:44.917Z,4.97
2019-03-30T00:35:49.341Z,4.97
2019-03-30T00:35:53.628Z,4.97
2019-03-30T00:35:57.921Z,4.96
2019-03-30T00:36:02.212Z,4.97
2019-03-30T00:36:06.505Z,4.97
2019-03-30T00:36:10.797Z,4.97
2019-03-30T00:36:15.075Z,4.96
2019-03-30T00:36:19.375Z,4.96
2019-03-30T00:36:23.590Z,4.97
2019-03-30T00:36:27.905Z,4.97
2019-03-30T00:36:32.212Z,4.96
2019-03-30T00:36:36.503Z,4.96
2019-03-30T00:36:40.705Z,4.96
2019-03-30T00:36:44.895Z,4.96
2019-03-30T00:36:49.351Z,4.95
2019-03-30T00:36:53.640Z,4.97
2019-03-30T00:36:57.931Z,4.96
2019-03-30T00:37:02.123Z,4.96
2019-03-30T00:37:06.512Z,4.96
2019-03-30T00:37:10.801Z,4.96
2019-03-30T00:37:15.140Z,4.97
2019-03-30T00:37:19.441Z,4.95
2019-03-30T00:37:23.736Z,4.96
2019-03-30T00:37:28.030Z,4.97
2019-03-30T00:37:32.352Z,4.96
2019-03-30T00:37:36.648Z,4.97
2019-03-30T00:37:40.950Z,4.96
2019-03-30T00:37:45.072Z,4.96
2019-03-30T00:37:49.397Z,4.96
2019-03-30T00:37:53.584Z,4.96
2019-03-30T00:37:57.887Z,4.96
2019-03-30T00:38:02.173Z,4.96
2019-03-30T00:38:06.457Z,4.96
2019-03-30T00:38:10.759Z,4.96
2019-03-30T00:38:15.063Z,4.97
2019-03-30T00:38:19.358Z,4.95
2019-03-30T00:38:23.650Z,4.97
2019-03-30T00:38:27.942Z,4.96
2019-03-30T00:38:32.234Z,4.96
2019-03-30T00:38:36.558Z,4.96
2019-03-30T00:38:40.755Z,4.97
2019-03-30T00:38:45.040Z,4.97
2019-03-30T00:38:49.354Z,4.98
2019-03-30T00:38:53.639Z,4.98
2019-03-30T00:38:57.935Z,4.98
2019-03-30T00:39:02.227Z,4.97
2019-03-30T00:39:06.521Z,4.98
2019-03-30T00:39:10.711Z,4.98
2019-03-30T00:39:15.012Z,4.99
2019-03-30T00:39:19.305Z,5
2019-03-30T00:39:23.506Z,4.98
2019-03-30T00:39:27.795Z,4.99
2019-03-30T00:39:32.119Z,4.99
2019-03-30T00:39:36.416Z,4.99
2019-03-30T00:39:40.746Z,4.99
2019-03-30T00:39:44.941Z,4.98
2019-03-30T00:39:49.227Z,4.99
2019-03-30T00:39:53.541Z,4.99
2019-03-30T00:39:57.833Z,4.99
2019-03-30T00:40:02.023Z,4.99
2019-03-30T00:40:06.312Z,4.99
2019-03-30T00:40:10.511Z,5
2019-03-30T00:40:14.806Z,5
2019-03-30T00:40:18.993Z,4.99
2019-03-30T00:40:23.190Z,4.99
2019-03-30T00:40:27.564Z,5
2019-03-30T00:40:31.857Z,5
2019-03-30T00:40:36.172Z,5
2019-03-30T00:40:40.470Z,5
2019-03-30T00:40:44.783Z,5
2019-03-30T00:40:49.080Z,5
2019-03-30T00:40:53.319Z,5.01
2019-03-30T00:40:57.510Z,5.01
2019-03-30T00:41:01.507Z,5
2019-03-30T00:41:05.793Z,5
2019-03-30T00:41:10.084Z,5.01
2019-03-30T00:41:14.367Z,5.01
2019-03-30T00:41:18.667Z,5.01
2019-03-30T00:41:22.864Z,5.01
2019-03-30T00:41:27.156Z,5.01
2019-03-30T00:41:31.250Z,5.01
2019-03-30T00:41:35.442Z,5.01
2019-03-30T00:41:39.733Z,5.01
2019-03-30T00:41:44.029Z,5.02
2019-03-30T00:41:48.614Z,5.01
2019-03-30T00:41:52.805Z,5.02
2019-03-30T00:41:57.097Z,5.02
2019-03-30T00:42:01.286Z,5.02
2019-03-30T00:42:05.574Z,5.02
2019-03-30T00:42:09.862Z,5.02
2019-03-30T00:42:14.145Z,5.03
2019-03-30T00:42:18.242Z,5.02
2019-03-30T00:42:22.533Z,5.02
2019-03-30T00:42:26.820Z,5.03
2019-03-30T00:42:31.113Z,5.03
2019-03-30T00:42:35.320Z,5.03
2019-03-30T00:42:39.422Z,5.03
2019-03-30T00:42:43.621Z,5.04
2019-03-30T00:42:47.943Z,5.04
2019-03-30T00:42:52.276Z,5.05
2019-03-30T00:42:56.567Z,5.04
2019-03-30T00:43:00.861Z,5.04
2019-03-30T00:43:05.154Z,5.04
2019-03-30T00:43:09.355Z,5.04
2019-03-30T00:43:13.663Z,5.05
2019-03-30T00:43:17.950Z,5.05
2019-03-30T00:43:22.244Z,5.05
2019-03-30T00:43:26.539Z,5.04
2019-03-30T00:43:30.684Z,5.05
2019-03-30T00:43:34.973Z,5.05
2019-03-30T00:43:39.165Z,5.06
2019-03-30T00:43:43.545Z,5.06
2019-03-30T00:43:48.017Z,5.06
2019-03-30T00:43:52.336Z,5.06
2019-03-30T00:43:56.646Z,5.07
2019-03-30T00:44:00.936Z,5.07
2019-03-30T00:44:05.280Z,5.06
2019-03-30T00:44:09.572Z,5.07
2019-03-30T00:44:13.667Z,5.08
2019-03-30T00:44:18.035Z,5.07
2019-03-30T00:44:22.225Z,5.08
2019-03-30T00:44:26.549Z,5.08
2019-03-30T00:44:30.745Z,5.08
2019-03-30T00:44:34.949Z,5.08
2019-03-30T00:44:39.237Z,5.09
2019-03-30T00:44:43.525Z,5.08
2019-03-30T00:44:47.876Z,5.09
2019-03-30T00:44:52.065Z,5.09
2019-03-30T00:44:56.362Z,5.08
2019-03-30T00:45:00.771Z,5.08
2019-03-30T00:45:05.040Z,5.09
2019-03-30T00:45:09.334Z,5.09
2019-03-30T00:45:13.619Z,5.09
2019-03-30T00:45:17.962Z,5.09
2019-03-30T00:45:22.251Z,5.09
2019-03-30T00:45:26.539Z,5.1
2019-03-30T00:45:30.739Z,5.1
2019-03-30T00:45:35.089Z,5.1
2019-03-30T00:45:39.446Z,5.1
2019-03-30T00:45:43.736Z,5.11
2019-03-30T00:45:48.025Z,5.1
2019-03-30T00:45:52.315Z,5.11
2019-03-30T00:45:56.610Z,5.11
2019-03-30T00:46:00.903Z,5.12
2019-03-30T00:46:05.270Z,5.11
2019-03-30T00:46:09.557Z,5.12
2019-03-30T00:46:13.748Z,5.11
2019-03-30T00:46:18.034Z,5.11
2019-03-30T00:46:22.326Z,5.12
2019-03-30T00:46:26.613Z,5.12
2019-03-30T00:46:30.905Z,5.13
2019-03-30T00:46:35.214Z,5.13
2019-03-30T00:46:39.413Z,5.13
2019-03-30T00:46:43.699Z,5.13
2019-03-30T00:46:47.991Z,5.13
2019-03-30T00:46:52.301Z,5.13
2019-03-30T00:46:56.491Z,5.13
2019-03-30T00:47:00.780Z,5.14
2019-03-30T00:47:05.185Z,5.13
2019-03-30T00:47:09.467Z,5.14
2019-03-30T00:47:13.760Z,5.14
2019-03-30T00:47:18.051Z,5.13
2019-03-30T00:47:22.351Z,5.14
2019-03-30T00:47:26.634Z,5.14
2019-03-30T00:47:30.922Z,5.13
2019-03-30T00:47:35.215Z,5.14
2019-03-30T00:47:39.410Z,5.14
2019-03-30T00:47:43.705Z,5.15
2019-03-30T00:47:47.909Z,5.14
2019-03-30T00:47:52.110Z,5.14
2019-03-30T00:47:56.399Z,5.14
2019-03-30T00:48:00.704Z,5.14
2019-03-30T00:48:05.038Z,5.14
2019-03-30T00:48:09.369Z,5.15
2019-03-30T00:48:13.653Z,5.15
2019-03-30T00:48:17.848Z,5.14
2019-03-30T00:48:22.159Z,5.15
2019-03-30T00:48:26.374Z,5.15
2019-03-30T00:48:30.662Z,5.15
2019-03-30T00:48:34.856Z,5.15
2019-03-30T00:48:39.054Z,5.14
2019-03-30T00:48:43.345Z,5.15
2019-03-30T00:48:47.640Z,5.15
2019-03-30T00:48:51.978Z,5.15
2019-03-30T00:48:56.280Z,5.15
2019-03-30T00:49:00.568Z,5.16
2019-03-30T00:49:04.873Z,5.16
2019-03-30T00:49:09.160Z,5.15
2019-03-30T00:49:13.569Z,5.16
2019-03-30T00:49:17.789Z,5.15
2019-03-30T00:49:22.085Z,5.15
2019-03-30T00:49:26.378Z,5.16
2019-03-30T00:49:30.666Z,5.16
2019-03-30T00:49:50.235Z,5.15
2019-03-30T00:49:54.627Z,5.16
2019-03-30T00:49:58.921Z,5.17
2019-03-30T00:50:03.150Z,5.16
2019-03-30T00:50:07.452Z,5.16
2019-03-30T00:50:11.662Z,5.17
2019-03-30T00:50:15.957Z,5.17
2019-03-30T00:50:20.271Z,5.17
2019-03-30T00:50:24.570Z,5.17
2019-03-30T00:50:28.856Z,5.17
2019-03-30T00:50:33.146Z,5.17
2019-03-30T00:50:37.440Z,5.17
2019-03-30T00:50:41.732Z,5.17
2019-03-30T00:50:45.928Z,5.17
2019-03-30T00:50:50.397Z,5.17
2019-03-30T00:50:54.702Z,5.17
2019-03-30T00:50:58.891Z,5.17
2019-03-30T00:51:03.278Z,5.17
2019-03-30T00:51:07.666Z,5.18
2019-03-30T00:51:11.959Z,5.18
2019-03-30T00:51:16.258Z,5.18
2019-03-30T00:51:20.567Z,5.17
2019-03-30T00:51:24.895Z,5.17
2019-03-30T00:51:29.194Z,5.18
2019-03-30T00:51:33.495Z,5.18
2019-03-30T00:51:37.788Z,5.18
2019-03-30T00:51:41.988Z,5.18
2019-03-30T00:51:46.275Z,5.18
2019-03-30T00:51:50.807Z,5.19
2019-03-30T00:51:55.102Z,5.19
2019-03-30T00:51:59.386Z,5.18
2019-03-30T00:52:03.676Z,5.19
2019-03-30T00:52:07.974Z,5.18
2019-03-30T00:52:12.263Z,5.19
2019-03-30T00:52:16.460Z,5.18
2019-03-30T00:52:20.651Z,5.19
2019-03-30T00:52:24.949Z,5.19
2019-03-30T00:52:29.259Z,5.19
2019-03-30T00:52:33.551Z,5.19
2019-03-30T00:52:37.752Z,5.2
2019-03-30T00:52:41.948Z,5.2
2019-03-30T00:52:46.235Z,5.19
2019-03-30T00:52:50.757Z,5.2
2019-03-30T00:52:54.948Z,5.2
2019-03-30T00:52:59.249Z,5.2
2019-03-30T00:53:03.541Z,5.2
2019-03-30T00:53:07.842Z,5.19
2019-03-30T00:53:12.149Z,5.2
2019-03-30T00:53:16.440Z,5.2
2019-03-30T00:53:20.735Z,5.2
2019-03-30T00:53:25.028Z,5.2
2019-03-30T00:53:29.351Z,5.2
2019-03-30T00:53:33.650Z,5.21
2019-03-30T00:53:37.943Z,5.21
2019-03-30T00:53:42.243Z,5.2
2019-03-30T00:53:46.539Z,5.21
2019-03-30T00:53:50.850Z,5.21
2019-03-30T00:53:55.147Z,5.21
2019-03-30T00:53:59.355Z,5.21
2019-03-30T00:54:03.662Z,5.21
2019-03-30T00:54:07.964Z,5.22
2019-03-30T00:54:12.256Z,5.22
2019-03-30T00:54:16.467Z,5.21
2019-03-30T00:54:20.755Z,5.22
2019-03-30T00:54:25.044Z,5.22
2019-03-30T00:54:29.402Z,5.22
2019-03-30T00:54:33.713Z,5.22
2019-03-30T00:54:38.002Z,5.22
2019-03-30T00:54:42.119Z,5.22
2019-03-30T00:54:46.319Z,5.23
2019-03-30T00:54:50.802Z,5.22
2019-03-30T00:54:55.097Z,5.23
2019-03-30T00:54:59.386Z,5.22
2019-03-30T00:55:04.002Z,5.22
2019-03-30T00:55:08.310Z,5.23
2019-03-30T00:55:12.610Z,5.23
2019-03-30T00:55:16.904Z,5.23
2019-03-30T00:55:21.199Z,5.23
2019-03-30T00:55:25.493Z,5.24
2019-03-30T00:55:29.786Z,5.24
2019-03-30T00:55:34.078Z,5.23
2019-03-30T00:55:38.326Z,5.24
2019-03-30T00:55:42.615Z,5.24
2019-03-30T00:55:47.191Z,5.24
2019-03-30T00:55:51.526Z,5.24
2019-03-30T00:55:55.829Z,5.23
2019-03-30T00:56:00.133Z,5.25
2019-03-30T00:56:04.327Z,5.24
2019-03-30T00:56:08.613Z,5.24
2019-03-30T00:56:12.908Z,5.25
2019-03-30T00:56:17.211Z,5.25
2019-03-30T00:56:21.504Z,5.26
2019-03-30T00:56:25.698Z,5.25
2019-03-30T00:56:29.997Z,5.25
2019-03-30T00:56:34.286Z,5.26
2019-03-30T00:56:38.481Z,5.26
2019-03-30T00:56:42.792Z,5.26
2019-03-30T00:56:47.198Z,5.26
2019-03-30T00:56:51.543Z,5.26
2019-03-30T00:56:55.838Z,5.25
2019-03-30T00:57:00.046Z,5.26
2019-03-30T00:57:04.335Z,5.26
2019-03-30T00:57:08.621Z,5.26
2019-03-30T00:57:12.912Z,5.27
2019-03-30T00:57:17.208Z,5.27
2019-03-30T00:57:21.504Z,5.27
2019-03-30T00:57:25.700Z,5.26
2019-03-30T00:57:30.000Z,5.27
2019-03-30T00:57:34.288Z,5.28
2019-03-30T00:57:38.483Z,5.27
2019-03-30T00:57:42.785Z,5.27
2019-03-30T00:57:47.277Z,5.28
2019-03-30T00:57:51.599Z,5.28
2019-03-30T00:57:55.892Z,5.28
2019-03-30T00:58:00.200Z,5.28
2019-03-30T00:58:04.570Z,5.28
2019-03-30T00:58:08.860Z,5.29
2019-03-30T00:58:13.152Z,5.28
2019-03-30T00:58:17.517Z,5.29
2019-03-30T00:58:21.898Z,5.29
2019-03-30T00:58:29.184Z,5.29
2019-03-30T00:58:33.473Z,5.29